Time;durP1;ratioP1;P1;durP2;ratioP2;P2;SDS_P1;SDS_P2;PMS_P1;PMS_P2;Temp;Humidity;BMP_temperature;BMP_pressure;BME280_temperature;BME280_humidity;BME280_pressure;Samples;Min_cycle;Max_cycle;Signal;HPM_P1;HPM_P2
2022/01/29 00:00:00;;;;;;;;;;;;;;;12.99;73.18;102076.28;7359419;19;19978;-63
2022/01/29 00:02:25;;;;;;;;;;;;;;;12.98;73.12;102085.03;7367055;19;20016;-63
2022/01/29 00:04:51;;;;;;;;;;;;;;;12.97;72.80;102084.13;7360139;19;20346;-63
2022/01/29 00:07:20;;;;;;;;;;;;;;;12.97;73.26;102088.50;7364989;19;20223;-63
2022/01/29 00:09:47;;;;;;;;;;;;;;;12.97;73.24;102080.66;7359592;19;20275;-63
2022/01/29 00:12:12;;;;;;;;;;;;;;;12.96;73.41;102086.78;7357889;19;20753;-63
2022/01/29 00:14:38;;;;;;;;;;;;;;;12.94;72.95;102073.69;7365203;19;19917;-63
2022/01/29 00:17:03;;;;;;;;;;;;;;;12.95;73.06;102069.31;7361560;19;19934;-63
2022/01/29 00:19:28;;;;;;;;;;;;;;;12.95;73.22;102066.69;7359881;19;19937;-63
2022/01/29 00:21:54;;;;;;;;;;;;;;;12.94;73.11;102078.06;7360898;19;19922;-63
2022/01/29 00:24:19;;;;;;;;;;;;;;;12.95;73.38;102085.06;7372331;19;19926;-63
2022/01/29 00:26:44;;;;;;;;;;;;;;;12.92;73.00;102058.84;7369648;19;19929;-63
2022/01/29 00:29:18;;;;;;;;;;;;;;;12.89;72.96;102065.00;7358258;19;19942;-63
2022/01/29 00:31:43;;;;;;;;;;;;;;;12.86;73.41;102065.03;7362546;19;19934;-62
2022/01/29 00:34:08;;;;;;;;;;;;;;;12.82;73.38;102062.44;7355715;19;19927;-63
2022/01/29 00:36:34;;;;;;;;;;;;;;;12.79;73.74;102046.78;7366936;19;19954;-63
2022/01/29 00:38:59;;;;;;;;;;;;;;;12.75;73.74;102045.94;7361412;19;20014;-63
2022/01/29 00:41:24;;;;;;;;;;;;;;;12.72;73.33;102033.75;7359801;19;19970;-63
2022/01/29 00:43:59;;;;;;;;;;;;;;;12.60;73.55;102030.34;7142268;19;10000046;-63
2022/01/29 00:46:24;;;;;;;;;;;;;;;12.62;73.62;102029.47;1723018;19;10001971;-63
2022/01/29 00:48:49;;;;;;;;;;;;;;;12.57;73.68;102041.75;7365392;19;19940;-63
2022/01/29 00:51:15;;;;;;;;;;;;;;;12.53;73.65;102034.81;7358733;19;19911;-63
2022/01/29 00:53:40;;;;;;;;;;;;;;;12.50;73.38;102040.06;7357707;19;20635;-63
2022/01/29 00:56:07;;;;;;;;;;;;;;;12.47;73.63;102032.25;7361851;19;19934;-63
2022/01/29 00:58:33;;;;;;;;;;;;;;;12.46;73.88;102046.19;7365992;19;19926;-62
2022/01/29 01:00:58;;;;;;;;;;;;;;;12.44;73.80;102034.88;7361912;19;19923;-63
2022/01/29 01:03:23;;;;;;;;;;;;;;;12.44;73.78;102017.41;7348807;19;19921;-63
2022/01/29 01:05:49;;;;;;;;;;;;;;;12.44;74.41;102021.78;7359979;19;19922;-63
2022/01/29 01:08:14;;;;;;;;;;;;;;;12.44;73.95;102021.78;7360525;19;19922;-63
2022/01/29 01:10:39;;;;;;;;;;;;;;;12.45;74.18;102042.72;7371258;19;19919;-63
2022/01/29 01:13:05;;;;;;;;;;;;;;;12.46;74.62;102036.59;7365796;19;20260;-63
2022/01/29 01:15:31;;;;;;;;;;;;;;;12.49;74.37;102027.84;7357243;19;19911;-63
2022/01/29 01:17:56;;;;;;;;;;;;;;;12.51;74.15;102036.53;7371515;19;19922;-63
2022/01/29 01:20:21;;;;;;;;;;;;;;;12.53;74.21;102019.06;7363818;19;19952;-63
2022/01/29 01:22:46;;;;;;;;;;;;;;;12.54;74.39;102020.81;7363401;19;20369;-63
2022/01/29 01:25:12;;;;;;;;;;;;;;;12.55;74.44;102011.19;7353907;19;19911;-63
2022/01/29 01:27:37;;;;;;;;;;;;;;;12.55;74.32;102001.56;7363396;19;19927;-63
2022/01/29 01:30:03;;;;;;;;;;;;;;;12.54;73.70;101994.59;7362893;19;19994;-63
2022/01/29 01:32:28;;;;;;;;;;;;;;;12.53;73.97;101998.13;7353198;19;19915;-63
2022/01/29 01:34:56;;;;;;;;;;;;;;;12.53;73.89;101997.25;7362812;19;19919;-63
2022/01/29 01:37:59;;;;;;;;;;;;;;;12.51;73.56;102010.34;7356797;19;19935;-63
2022/01/29 01:40:14;;;;;;;;;;;;;;;12.52;73.75;101998.09;7354640;19;19923;-63
2022/01/29 01:42:39;;;;;;;;;;;;;;;12.51;73.84;101989.38;7357432;19;19930;-63
2022/01/29 01:45:05;;;;;;;;;;;;;;;12.50;73.68;101998.13;7363022;19;20248;-63
2022/01/29 01:47:30;;;;;;;;;;;;;;;12.51;73.67;102005.09;7359788;19;19911;-63
2022/01/29 01:49:56;;;;;;;;;;;;;;;12.53;73.54;101992.00;7359686;19;20466;-63
2022/01/29 01:52:21;;;;;;;;;;;;;;;12.51;73.89;101994.63;7360491;19;20329;-63
2022/01/29 01:54:46;;;;;;;;;;;;;;;12.53;73.76;101986.78;7357107;19;22007;-63
2022/01/29 01:57:12;;;;;;;;;;;;;;;12.54;74.08;101994.59;7366166;19;20237;-63
2022/01/29 01:59:37;;;;;;;;;;;;;;;12.56;73.68;101987.59;7366314;19;19946;-63
2022/01/29 02:02:03;;;;;;;;;;;;;;;12.58;73.80;102001.56;7370309;19;20080;-63
2022/01/29 02:04:28;;;;;;;;;;;;;;;12.59;73.68;101992.81;7375696;19;19923;-63
2022/01/29 02:06:54;;;;;;;;;;;;;;;12.62;73.62;101989.28;7370681;19;20324;-63
2022/01/29 02:09:22;;;;;;;;;;;;;;;12.64;73.67;101988.38;7368498;19;19915;-63
2022/01/29 02:11:54;;;;;;;;;;;;;;;12.66;73.98;101983.13;7363156;19;19951;-63
2022/01/29 02:14:21;;;;;;;;;;;;;;;12.69;73.67;101978.72;7368734;19;19925;-63
2022/01/29 02:16:46;;;;;;;;;;;;;;;12.73;73.72;101987.44;7363498;19;22005;-62
2022/01/29 02:19:11;;;;;;;;;;;;;;;12.77;73.31;102006.59;7365017;19;19923;-63
2022/01/29 02:21:37;;;;;;;;;;;;;;;12.80;73.37;101993.47;7368549;19;20320;-63
2022/01/29 02:24:03;;;;;;;;;;;;;;;12.82;73.19;101989.06;7363794;19;19933;-63
2022/01/29 02:26:28;;;;;;;;;;;;;;;12.86;73.52;101985.50;7367854;19;19925;-63
2022/01/29 02:28:54;;;;;;;;;;;;;;;12.88;73.22;101989.00;7348259;19;19922;-63
2022/01/29 02:31:20;;;;;;;;;;;;;;;12.90;72.96;101976.75;7368397;19;19953;-63
2022/01/29 02:33:45;;;;;;;;;;;;;;;12.92;73.35;101982.81;7366680;19;20352;-63
2022/01/29 02:36:20;;;;;;;;;;;;;;;12.95;73.15;101967.06;2252088;19;10022047;-63
2022/01/29 02:38:45;;;;;;;;;;;;;;;12.96;73.20;101977.53;6656665;19;10000973;-63
2022/01/29 02:41:10;;;;;;;;;;;;;;;12.98;72.64;101972.28;7360130;19;19927;-63
2022/01/29 02:43:47;;;;;;;;;;;;;;;13.01;72.87;101974.84;7366146;19;20260;-63
2022/01/29 02:48:46;;;;;;;;;;;;;;;13.04;72.57;101963.47;7368049;19;20014;-63
2022/01/29 02:51:12;;;;;;;;;;;;;;;13.05;72.77;101970.44;7360513;19;19925;-63
2022/01/29 02:53:37;;;;;;;;;;;;;;;13.06;72.54;101957.31;7366306;19;19926;-63
2022/01/29 02:56:03;;;;;;;;;;;;;;;13.08;72.43;101947.69;7375512;19;20339;-63
2022/01/29 02:58:28;;;;;;;;;;;;;;;13.08;72.13;101937.19;7367643;19;19926;-63
2022/01/29 03:00:53;;;;;;;;;;;;;;;13.10;72.05;101917.03;7375293;19;19927;-63
2022/01/29 03:03:19;;;;;;;;;;;;;;;13.12;72.24;101923.13;7368180;19;19964;-63
2022/01/29 03:05:44;;;;;;;;;;;;;;;13.14;71.70;101934.47;7368323;19;19927;-63
2022/01/29 03:08:10;;;;;;;;;;;;;;;13.16;71.88;101937.94;7367882;19;19964;-63
2022/01/29 03:10:35;;;;;;;;;;;;;;;13.17;71.83;101928.31;7366325;19;19948;-64
2022/01/29 03:13:00;;;;;;;;;;;;;;;13.20;71.83;101931.75;7369175;19;19930;-63
2022/01/29 03:15:26;;;;;;;;;;;;;;;13.21;71.44;101930.91;7364164;19;19918;-63
2022/01/29 03:17:51;;;;;;;;;;;;;;;13.22;71.79;101914.25;7366316;19;19971;-63
2022/01/29 03:20:16;;;;;;;;;;;;;;;13.23;71.43;101908.16;7368118;19;20344;-63
2022/01/29 03:22:42;;;;;;;;;;;;;;;13.27;71.62;101915.97;7354826;19;20371;-63
2022/01/29 03:25:07;;;;;;;;;;;;;;;13.27;71.60;101898.47;7366293;19;19950;-63
2022/01/29 03:27:33;;;;;;;;;;;;;;;13.28;71.22;101915.06;7367984;19;20340;-62
2022/01/29 03:29:58;;;;;;;;;;;;;;;13.29;70.98;101895.84;7366177;19;19911;-63
2022/01/29 03:32:23;;;;;;;;;;;;;;;13.29;71.38;101896.69;7366702;19;19927;-64
2022/01/29 03:34:49;;;;;;;;;;;;;;;13.31;71.20;101910.66;7366181;19;20620;-63
2022/01/29 03:37:14;;;;;;;;;;;;;;;13.31;70.78;101915.03;7365570;19;19922;-63
2022/01/29 03:39:42;;;;;;;;;;;;;;;13.32;70.92;101919.38;7372454;19;19940;-63
2022/01/29 03:42:09;;;;;;;;;;;;;;;13.32;70.80;101911.50;7367812;19;19918;-62
2022/01/29 03:44:34;;;;;;;;;;;;;;;13.32;70.82;101909.75;7378510;19;19911;-63
2022/01/29 03:46:59;;;;;;;;;;;;;;;13.33;71.08;101944.72;7371936;19;19907;-63
2022/01/29 03:49:25;;;;;;;;;;;;;;;13.33;70.71;101910.63;7369037;19;20332;-63
2022/01/29 03:51:50;;;;;;;;;;;;;;;13.34;71.00;101909.75;7365945;19;19923;-62
2022/01/29 03:54:15;;;;;;;;;;;;;;;13.35;70.54;101906.25;7361011;19;20371;-63
2022/01/29 03:56:41;;;;;;;;;;;;;;;13.35;70.93;101896.59;7366846;19;19931;-62
2022/01/29 03:59:06;;;;;;;;;;;;;;;13.36;70.41;101889.59;7361648;19;19911;-63
2022/01/29 04:01:31;;;;;;;;;;;;;;;13.36;70.91;101884.34;7366617;19;19919;-63
2022/01/29 04:03:57;;;;;;;;;;;;;;;13.36;70.43;101894.84;7355758;19;19915;-64
2022/01/29 04:06:23;;;;;;;;;;;;;;;13.38;70.70;101885.19;7356204;19;19940;-63
2022/01/29 04:08:48;;;;;;;;;;;;;;;13.38;70.80;101877.31;7368090;19;19930;-63
2022/01/29 04:11:14;;;;;;;;;;;;;;;13.38;70.62;101886.06;7363517;19;19929;-63
2022/01/29 04:13:42;;;;;;;;;;;;;;;13.38;70.81;101878.22;7366083;19;19929;-65
2022/01/29 04:16:08;;;;;;;;;;;;;;;13.39;70.68;101902.69;7366416;19;19922;-63
2022/01/29 04:18:34;;;;;;;;;;;;;;;13.40;70.66;101883.41;7362531;19;19911;-63
2022/01/29 04:20:59;;;;;;;;;;;;;;;13.41;70.39;101890.41;7365694;19;19915;-63
2022/01/29 04:23:24;;;;;;;;;;;;;;;13.42;70.25;101882.50;7368757;19;19952;-63
2022/01/29 04:26:05;;;;;;;;;;;;;;;13.40;70.59;101879.03;4674290;19;10001054;-63
2022/01/29 04:28:36;;;;;;;;;;;;;;;13.45;70.55;101886.84;4525287;19;10001693;-63
2022/01/29 04:31:13;;;;;;;;;;;;;;;13.45;70.41;101890.31;7375508;19;20521;-63
2022/01/29 04:33:38;;;;;;;;;;;;;;;13.46;70.46;101880.69;7372193;19;20278;-63
2022/01/29 04:36:04;;;;;;;;;;;;;;;13.47;69.88;101871.94;7366697;19;19932;-63
2022/01/29 04:38:30;;;;;;;;;;;;;;;13.48;70.25;101868.41;7365889;19;19919;-63
2022/01/29 04:40:56;;;;;;;;;;;;;;;13.49;69.88;101862.28;7365091;19;19952;-63
2022/01/29 04:43:21;;;;;;;;;;;;;;;13.50;69.76;101871.88;7368229;19;19919;-63
2022/01/29 04:45:46;;;;;;;;;;;;;;;13.49;69.94;101860.53;7369816;19;20591;-63
2022/01/29 04:48:12;;;;;;;;;;;;;;;13.49;70.19;101852.66;7366235;19;19923;-63
2022/01/29 04:50:38;;;;;;;;;;;;;;;13.48;69.73;101860.53;7370404;19;19931;-63
2022/01/29 04:53:03;;;;;;;;;;;;;;;13.49;69.69;101851.78;7369692;19;19911;-63
2022/01/29 04:55:28;;;;;;;;;;;;;;;13.49;70.11;101847.41;7368894;19;19925;-63
2022/01/29 04:57:53;;;;;;;;;;;;;;;13.48;70.11;101835.19;7367239;19;19985;-63
2022/01/29 05:00:19;;;;;;;;;;;;;;;13.49;69.71;101821.16;7368755;19;19918;-63
2022/01/29 05:02:45;;;;;;;;;;;;;;;13.49;69.84;101839.53;7359923;19;19915;-62
2022/01/29 05:05:11;;;;;;;;;;;;;;;13.50;69.83;101806.28;7369119;19;19919;-63
2022/01/29 05:07:36;;;;;;;;;;;;;;;13.50;69.97;101816.78;7366586;19;19922;-63
2022/01/29 05:10:01;;;;;;;;;;;;;;;13.50;70.00;101827.28;7365747;19;19923;-63
2022/01/29 05:12:34;;;;;;;;;;;;;;;13.51;70.06;101813.25;7368370;19;20329;-63
2022/01/29 05:28:04;;;;;;;;;;;;;;;13.56;69.47;101800.91;7360309;19;19932;-63
2022/01/29 05:30:29;;;;;;;;;;;;;;;13.55;69.22;101788.69;7367385;19;19915;-63
2022/01/29 05:32:54;;;;;;;;;;;;;;;13.56;69.27;101789.56;7367358;19;19932;-64
2022/01/29 05:35:20;;;;;;;;;;;;;;;13.55;69.54;101799.19;7363270;19;20248;-63
2022/01/29 05:37:49;;;;;;;;;;;;;;;13.55;69.52;101803.59;7364499;19;19926;-63
2022/01/29 05:40:14;;;;;;;;;;;;;;;13.56;69.57;101811.41;7365903;19;19939;-63
2022/01/29 05:42:39;;;;;;;;;;;;;;;13.57;69.25;101828.88;7360799;19;19925;-63
2022/01/29 05:45:05;;;;;;;;;;;;;;;13.56;69.70;101814.03;7366350;19;19915;-63
2022/01/29 05:47:30;;;;;;;;;;;;;;;13.57;69.61;101807.91;7362634;19;19962;-63
2022/01/29 05:49:55;;;;;;;;;;;;;;;13.58;69.33;101793.88;7366512;19;19986;-63
2022/01/29 05:52:21;;;;;;;;;;;;;;;13.60;69.33;101786.00;7365425;19;19968;-63
2022/01/29 05:54:46;;;;;;;;;;;;;;;13.60;69.58;101794.72;7364815;19;19923;-63
2022/01/29 05:57:11;;;;;;;;;;;;;;;13.62;69.14;101792.94;7355454;19;19954;-64
2022/01/29 05:59:37;;;;;;;;;;;;;;;13.63;69.17;101786.78;7362638;19;19983;-63
2022/01/29 06:02:02;;;;;;;;;;;;;;;13.64;69.39;101792.94;7364382;19;19978;-63
2022/01/29 06:04:28;;;;;;;;;;;;;;;13.65;68.95;101785.00;7357037;19;19990;-63
2022/01/29 06:06:53;;;;;;;;;;;;;;;13.67;69.18;101764.84;7364362;19;21055;-63
2022/01/29 06:09:18;;;;;;;;;;;;;;;13.68;69.12;101773.59;7362471;19;19939;-63
2022/01/29 06:11:44;;;;;;;;;;;;;;;13.69;68.78;101789.31;7363249;19;19922;-63
2022/01/29 06:14:09;;;;;;;;;;;;;;;13.70;68.56;101774.44;7365534;19;19942;-63
2022/01/29 06:16:35;;;;;;;;;;;;;;;13.66;68.94;101771.00;7330035;19;19915;-63
2022/01/29 06:19:00;;;;;;;;;;;;;;;13.72;68.85;101776.13;1094344;19;10001929;-63
2022/01/29 06:21:25;;;;;;;;;;;;;;;13.74;68.90;101784.84;7359246;19;19915;-62
2022/01/29 06:23:50;;;;;;;;;;;;;;;13.74;68.76;101790.09;7360340;19;19929;-63
2022/01/29 06:26:16;;;;;;;;;;;;;;;13.74;68.35;101779.59;7361832;19;20599;-63
2022/01/29 06:28:42;;;;;;;;;;;;;;;13.75;68.78;101780.47;7365052;19;19923;-64
2022/01/29 06:31:09;;;;;;;;;;;;;;;13.76;68.41;101767.31;7360119;19;19919;-62
2022/01/29 06:33:35;;;;;;;;;;;;;;;13.76;68.50;101743.69;7359801;19;20477;-63
2022/01/29 06:36:00;;;;;;;;;;;;;;;13.77;68.13;101745.41;7364250;19;20017;-63
2022/01/29 06:38:25;;;;;;;;;;;;;;;13.77;68.06;101762.91;7360878;19;19935;-63
2022/01/29 06:40:51;;;;;;;;;;;;;;;13.75;68.07;101760.31;7360774;19;19935;-63
2022/01/29 06:43:16;;;;;;;;;;;;;;;13.75;68.42;101764.72;7361758;19;19943;-63
2022/01/29 06:45:43;;;;;;;;;;;;;;;13.75;68.16;101762.09;7356094;19;19960;-63
2022/01/29 06:48:08;;;;;;;;;;;;;;;13.73;68.28;101743.72;7367106;19;19943;-63
2022/01/29 06:50:34;;;;;;;;;;;;;;;13.62;68.27;101732.56;7369441;19;19922;-63
2022/01/29 06:53:00;;;;;;;;;;;;;;;13.72;68.51;101739.38;7368275;19;19919;-63
2022/01/29 06:55:25;;;;;;;;;;;;;;;13.74;68.66;101748.09;7368685;19;21084;-63
2022/01/29 06:57:50;;;;;;;;;;;;;;;13.74;68.15;101737.59;7368106;19;19926;-63
2022/01/29 07:00:16;;;;;;;;;;;;;;;13.75;68.53;101731.44;7373661;19;20264;-63
2022/01/29 07:02:41;;;;;;;;;;;;;;;13.74;68.19;101721.84;7376286;19;19918;-63
2022/01/29 07:05:08;;;;;;;;;;;;;;;13.76;68.31;101713.94;7367835;19;20025;-63
2022/01/29 07:07:33;;;;;;;;;;;;;;;13.76;68.72;101720.06;7377305;19;19919;-63
2022/01/29 07:09:59;;;;;;;;;;;;;;;13.76;68.39;101698.19;7376610;19;19918;-63
2022/01/29 07:12:25;;;;;;;;;;;;;;;13.74;68.87;101716.59;7371783;19;19926;-63
2022/01/29 07:14:50;;;;;;;;;;;;;;;13.70;68.92;101714.94;7367559;19;20327;-63
2022/01/29 07:17:22;;;;;;;;;;;;;;;13.69;68.84;101728.94;7359334;19;20249;-63
2022/01/29 07:19:47;;;;;;;;;;;;;;;13.68;68.93;101729.81;7369471;19;20301;-64
2022/01/29 07:22:13;;;;;;;;;;;;;;;13.66;68.88;101733.38;7362838;19;20471;-63
2022/01/29 07:24:38;;;;;;;;;;;;;;;13.64;69.52;101704.56;7369210;19;19915;-63
2022/01/29 07:27:04;;;;;;;;;;;;;;;13.62;69.35;101714.19;7367363;19;19930;-65
2022/01/29 07:29:30;;;;;;;;;;;;;;;13.64;69.45;101715.06;7365566;19;20672;-63
2022/01/29 07:31:58;;;;;;;;;;;;;;;13.62;69.49;101716.81;7368429;19;19919;-63
2022/01/29 07:34:24;;;;;;;;;;;;;;;13.59;69.52;101737.91;7365408;19;20532;-63
2022/01/29 07:36:50;;;;;;;;;;;;;;;13.57;70.07;101713.41;7367929;19;19938;-63
2022/01/29 07:39:16;;;;;;;;;;;;;;;13.54;70.02;101713.50;7367581;19;19910;-63
2022/01/29 07:41:41;;;;;;;;;;;;;;;13.51;69.96;101724.03;7355403;19;19911;-63
2022/01/29 07:44:06;;;;;;;;;;;;;;;13.48;70.45;101726.69;7360641;19;19948;-63
2022/01/29 07:46:31;;;;;;;;;;;;;;;13.43;70.50;101742.56;7371275;19;20335;-63
2022/01/29 07:48:57;;;;;;;;;;;;;;;13.40;71.06;101736.50;7346242;19;19926;-64
2022/01/29 07:51:22;;;;;;;;;;;;;;;13.40;71.11;101757.47;7368537;19;19978;-63
2022/01/29 07:53:47;;;;;;;;;;;;;;;13.36;71.70;101751.41;7368026;19;19922;-63
2022/01/29 07:56:13;;;;;;;;;;;;;;;13.34;71.74;101747.97;7371745;19;19923;-63
2022/01/29 07:58:38;;;;;;;;;;;;;;;13.35;71.73;101748.81;7371484;19;19914;-63
2022/01/29 08:01:03;;;;;;;;;;;;;;;13.33;71.99;101755.84;7368608;19;19955;-63
2022/01/29 08:03:29;;;;;;;;;;;;;;;13.33;72.03;101750.59;7367659;19;19927;-63
2022/01/29 08:05:54;;;;;;;;;;;;;;;13.30;72.48;101746.28;7358935;19;20435;-63
2022/01/29 08:08:20;;;;;;;;;;;;;;;13.28;72.32;101747.19;7364005;19;19915;-63
2022/01/29 08:10:45;;;;;;;;;;;;;;;13.24;72.44;101747.25;7338160;19;19923;-63
2022/01/29 08:13:10;;;;;;;;;;;;;;;13.21;73.04;101755.16;1082897;19;10002248;-63
2022/01/29 08:15:35;;;;;;;;;;;;;;;13.20;73.16;101776.16;7365985;19;20002;-64
2022/01/29 08:18:01;;;;;;;;;;;;;;;13.17;73.05;101777.03;7365804;19;19924;-63
2022/01/29 08:20:26;;;;;;;;;;;;;;;13.16;72.95;101762.22;7365721;19;19911;-63
2022/01/29 08:22:51;;;;;;;;;;;;;;;13.15;73.13;101765.72;7365871;19;19941;-63
2022/01/29 08:25:17;;;;;;;;;;;;;;;13.14;73.72;101764.00;7363282;19;19934;-63
2022/01/29 08:27:42;;;;;;;;;;;;;;;13.14;73.39;101769.25;7367049;19;19923;-63
2022/01/29 08:30:08;;;;;;;;;;;;;;;13.14;73.54;101765.75;7366568;19;19915;-63
2022/01/29 08:32:40;;;;;;;;;;;;;;;13.14;73.95;101786.75;7362232;19;19926;-63
2022/01/29 08:35:06;;;;;;;;;;;;;;;13.14;73.70;101792.84;7365786;19;19993;-63
2022/01/29 08:37:31;;;;;;;;;;;;;;;13.14;74.00;101803.34;7365641;19;19953;-63
2022/01/29 08:39:56;;;;;;;;;;;;;;;13.16;74.14;101805.94;7366793;19;19919;-63
2022/01/29 08:42:21;;;;;;;;;;;;;;;13.16;74.21;101817.28;7361439;19;19952;-63
2022/01/29 08:44:47;;;;;;;;;;;;;;;13.14;74.19;101832.19;7367536;19;19915;-63
2022/01/29 08:47:12;;;;;;;;;;;;;;;13.13;74.29;101832.22;7365431;19;19914;-63
2022/01/29 08:49:39;;;;;;;;;;;;;;;13.13;74.33;101833.09;7361962;19;19939;-63
2022/01/29 08:52:04;;;;;;;;;;;;;;;13.11;74.52;101849.72;7370007;19;19923;-64
2022/01/29 08:54:29;;;;;;;;;;;;;;;13.09;74.22;101828.78;7369893;19;20391;-65
2022/01/29 08:56:55;;;;;;;;;;;;;;;13.07;74.70;101848.03;7358068;19;19943;-65
2022/01/29 08:59:20;;;;;;;;;;;;;;;13.05;74.83;101839.31;7365350;19;19926;-64
2022/01/29 09:01:45;;;;;;;;;;;;;;;13.04;74.92;101833.22;7365829;19;20607;-63
2022/01/29 09:04:11;;;;;;;;;;;;;;;13.03;74.81;101825.34;7360680;19;19949;-63
2022/01/29 09:06:36;;;;;;;;;;;;;;;13.02;74.98;101826.25;7364823;19;19907;-63
2022/01/29 09:09:02;;;;;;;;;;;;;;;12.99;74.79;101817.53;7362302;19;19977;-63
2022/01/29 09:11:27;;;;;;;;;;;;;;;12.98;75.13;101833.31;7362933;19;19958;-63
2022/01/29 09:13:52;;;;;;;;;;;;;;;12.97;74.79;101836.78;7366324;19;20328;-63
2022/01/29 09:16:18;;;;;;;;;;;;;;;12.94;75.08;101853.47;7362414;19;19923;-63
2022/01/29 09:18:44;;;;;;;;;;;;;;;12.92;74.82;101857.84;7364055;19;19943;-63
2022/01/29 09:21:09;;;;;;;;;;;;;;;12.90;74.68;101880.59;7364333;19;19954;-63
2022/01/29 09:23:34;;;;;;;;;;;;;;;12.88;74.28;101894.63;7363104;19;19914;-63
2022/01/29 09:26:01;;;;;;;;;;;;;;;12.90;74.84;101908.56;7363637;19;19915;-63
2022/01/29 09:28:26;;;;;;;;;;;;;;;12.98;75.17;101907.59;7362602;19;19926;-63
2022/01/29 09:30:52;;;;;;;;;;;;;;;13.14;75.18;101913.50;7363839;19;20332;-63
2022/01/29 09:33:17;;;;;;;;;;;;;;;13.37;75.31;101930.69;7360225;19;19927;-63
2022/01/29 09:35:43;;;;;;;;;;;;;;;13.57;75.20;101939.13;7370775;19;19986;-63
2022/01/29 09:38:10;;;;;;;;;;;;;;;13.77;74.65;101962.44;7370631;19;19930;-63
2022/01/29 09:40:35;;;;;;;;;;;;;;;13.84;73.10;101985.09;7362269;19;20299;-63
2022/01/29 09:43:03;;;;;;;;;;;;;;;13.80;70.94;101986.03;7366353;19;19987;-63
2022/01/29 09:45:29;;;;;;;;;;;;;;;13.70;70.57;102003.69;7362476;19;19911;-63
2022/01/29 09:48:01;;;;;;;;;;;;;;;13.60;69.96;102020.44;7357934;19;19929;-63
2022/01/29 09:50:27;;;;;;;;;;;;;;;13.62;69.48;102004.66;7362804;19;19931;-63
2022/01/29 09:52:52;;;;;;;;;;;;;;;13.62;69.07;102034.41;7362924;19;19936;-64
2022/01/29 09:55:18;;;;;;;;;;;;;;;13.64;69.18;102019.53;7358124;19;19919;-63
2022/01/29 09:57:43;;;;;;;;;;;;;;;13.68;69.47;102042.19;7362620;19;19930;-64
2022/01/29 10:00:10;;;;;;;;;;;;;;;13.75;69.10;102054.38;7364366;19;19926;-64
2022/01/29 10:02:36;;;;;;;;;;;;;;;13.86;68.83;102071.72;7358306;19;19918;-63
2022/01/29 10:05:15;;;;;;;;;;;;;;;13.88;68.54;102059.41;2968605;19;10021723;-64
2022/01/29 10:07:40;;;;;;;;;;;;;;;14.01;68.12;102082.84;6143939;19;10001176;-64
2022/01/29 10:10:19;;;;;;;;;;;;;;;14.08;67.75;102096.75;7363714;19;19919;-64
2022/01/29 10:12:44;;;;;;;;;;;;;;;14.16;67.73;102097.53;7359973;19;19927;-64
2022/01/29 10:15:09;;;;;;;;;;;;;;;14.24;67.27;102095.66;7354402;19;19922;-64
2022/01/29 10:17:39;;;;;;;;;;;;;;;14.35;67.14;102094.63;7359619;19;19919;-64
2022/01/29 10:20:07;;;;;;;;;;;;;;;14.44;66.46;102099.69;7370374;19;19922;-64
2022/01/29 10:22:33;;;;;;;;;;;;;;;14.52;66.28;102089.97;7372595;19;20605;-64
2022/01/29 10:24:58;;;;;;;;;;;;;;;14.59;66.25;102104.75;7367838;19;19936;-64
2022/01/29 10:27:23;;;;;;;;;;;;;;;14.67;65.20;102089.72;7369093;19;20631;-64
2022/01/29 10:29:58;;;;;;;;;;;;;;;14.77;64.94;102087.78;7365328;19;19933;-64
2022/01/29 10:32:24;;;;;;;;;;;;;;;14.83;65.03;102094.69;7369126;19;19986;-64
2022/01/29 10:34:53;;;;;;;;;;;;;;;14.92;64.34;102099.81;7367097;19;20660;-63
2022/01/29 10:37:19;;;;;;;;;;;;;;;14.98;64.44;102110.19;7366753;19;19925;-64
2022/01/29 10:39:49;;;;;;;;;;;;;;;15.09;64.42;102113.50;7345240;19;19918;-64
2022/01/29 10:42:21;;;;;;;;;;;;;;;15.19;63.89;102128.22;7342893;19;19947;-64
2022/01/29 10:44:47;;;;;;;;;;;;;;;15.32;63.20;102137.63;7356101;19;19919;-64
2022/01/29 10:47:13;;;;;;;;;;;;;;;15.43;63.29;102144.44;7358862;19;19922;-64
2022/01/29 10:49:44;;;;;;;;;;;;;;;15.53;63.23;102146.84;7358875;19;19929;-64
2022/01/29 10:52:13;;;;;;;;;;;;;;;15.65;62.64;102135.22;7365380;19;19922;-64
2022/01/29 10:54:40;;;;;;;;;;;;;;;15.77;61.92;102149.91;7363906;19;19927;-64
2022/01/29 10:57:07;;;;;;;;;;;;;;;15.86;61.56;102154.09;7364969;19;19919;-64
2022/01/29 10:59:34;;;;;;;;;;;;;;;15.95;61.79;102164.44;7358700;19;19919;-64
2022/01/29 11:02:03;;;;;;;;;;;;;;;16.06;61.64;102178.25;7365194;19;19919;-64
2022/01/29 11:04:30;;;;;;;;;;;;;;;16.21;61.47;102167.34;7365108;19;19922;-64
2022/01/29 11:06:58;;;;;;;;;;;;;;;16.41;60.83;102188.00;7365122;19;19957;-64
2022/01/29 11:09:23;;;;;;;;;;;;;;;16.57;60.49;102180.59;7360820;19;19926;-64
2022/01/29 11:11:50;;;;;;;;;;;;;;;16.68;60.46;102183.00;7360775;19;19918;-64
2022/01/29 11:14:17;;;;;;;;;;;;;;;16.70;59.37;102184.66;7352653;19;19951;-64
2022/01/29 11:16:43;;;;;;;;;;;;;;;16.61;58.85;102191.03;7371457;19;19919;-65
2022/01/29 11:19:09;;;;;;;;;;;;;;;16.55;58.48;102187.69;7371793;19;20033;-64
2022/01/29 11:21:35;;;;;;;;;;;;;;;16.52;58.85;102193.88;7371478;19;19986;-63
2022/01/29 11:24:01;;;;;;;;;;;;;;;16.59;58.30;102195.50;7368141;19;19935;-63
2022/01/29 11:26:29;;;;;;;;;;;;;;;16.69;58.09;102201.41;7364950;19;20013;-63
2022/01/29 11:29:12;;;;;;;;;;;;;;;16.84;57.02;102210.75;7362492;19;19914;-63
2022/01/29 11:31:38;;;;;;;;;;;;;;;16.95;57.27;102207.84;7361790;19;19925;-63
2022/01/29 11:34:05;;;;;;;;;;;;;;;17.01;56.14;102220.88;7366569;19;19910;-64
2022/01/29 11:36:48;;;;;;;;;;;;;;;17.01;55.90;102216.47;7341624;19;19998;-63
2022/01/29 11:39:20;;;;;;;;;;;;;;;17.05;55.58;102220.78;7360189;19;19922;-64
2022/01/29 11:41:45;;;;;;;;;;;;;;;17.15;56.14;102221.41;7354578;19;20324;-63
2022/01/29 11:44:26;;;;;;;;;;;;;;;17.28;55.65;102228.06;7324257;19;19923;-64
2022/01/29 11:46:52;;;;;;;;;;;;;;;17.43;54.99;102225.94;7351392;19;19926;-64
2022/01/29 11:49:18;;;;;;;;;;;;;;;17.51;54.08;102208.97;7364030;19;19921;-63
2022/01/29 11:51:46;;;;;;;;;;;;;;;17.53;54.11;102243.28;7362783;19;20680;-63
2022/01/29 11:54:20;;;;;;;;;;;;;;;17.45;53.89;102225.00;7366069;19;20333;-63
2022/01/29 11:56:46;;;;;;;;;;;;;;;17.29;53.83;102255.38;7356621;19;19919;-64
2022/01/29 11:59:17;;;;;;;;;;;;;;;17.21;54.08;102252.91;7362630;19;20560;-64
2022/01/29 12:01:42;;;;;;;;;;;;;;;17.19;54.17;102254.75;7370838;19;19918;-63
2022/01/29 12:04:07;;;;;;;;;;;;;;;17.26;54.63;102261.59;7343244;19;20006;-63
2022/01/29 12:06:35;;;;;;;;;;;;;;;17.40;54.35;102257.72;7365604;19;19926;-63
2022/01/29 12:09:04;;;;;;;;;;;;;;;17.48;54.54;102274.22;7370368;19;19946;-64
2022/01/29 12:11:30;;;;;;;;;;;;;;;17.46;53.58;102265.47;7333538;19;19919;-64
2022/01/29 12:14:13;;;;;;;;;;;;;;;17.36;53.72;102268.34;7359140;19;20859;-64
2022/01/29 12:16:47;;;;;;;;;;;;;;;17.28;54.02;102265.03;5912890;19;10000624;-63
2022/01/29 12:19:30;;;;;;;;;;;;;;;17.30;54.36;102268.53;2735568;19;10002137;-63
2022/01/29 12:21:56;;;;;;;;;;;;;;;17.32;54.38;102266.69;7360591;19;19952;-63
2022/01/29 12:24:21;;;;;;;;;;;;;;;17.33;53.52;102280.75;7352591;19;19915;-64
2022/01/29 12:26:52;;;;;;;;;;;;;;;17.29;53.73;102277.38;7358103;19;19935;-63
2022/01/29 12:29:17;;;;;;;;;;;;;;;17.29;54.00;102277.38;7360138;19;19927;-62
2022/01/29 12:31:52;;;;;;;;;;;;;;;17.35;54.15;102281.63;7362657;19;19911;-63
2022/01/29 12:34:20;;;;;;;;;;;;;;;17.37;54.10;102291.22;7364946;19;20331;-62
2022/01/29 12:36:45;;;;;;;;;;;;;;;17.32;53.42;102301.03;7362354;19;20467;-63
2022/01/29 12:39:20;;;;;;;;;;;;;;;17.25;53.76;102291.53;7352027;19;20487;-63
2022/01/29 12:41:46;;;;;;;;;;;;;;;17.15;53.36;102300.59;7354666;19;19927;-63
2022/01/29 12:44:18;;;;;;;;;;;;;;;17.08;53.38;102304.28;7367340;19;19924;-68
2022/01/29 12:46:45;;;;;;;;;;;;;;;16.99;53.35;102315.06;7368741;19;19915;-61